sensor_id;sensor_type;location;lat;lon;timestamp;temperature;humidity
30851;DHT22;17567;48.382;9.102;2023-04-30T00:02:41;9.70;99.90
30851;DHT22;17567;48.382;9.102;2023-04-30T00:07:42;9.70;99.90
30851;DHT22;17567;48.382;9.102;2023-04-30T00:12:43;9.70;99.90
30851;DHT22;17567;48.382;9.102;2023-04-30T00:17:43;9.70;99.90
30851;DHT22;17567;48.382;9.102;2023-04-30T00:22:44;9.70;99.90
30851;DHT22;17567;48.382;9.102;2023-04-30T00:27:44;9.70;99.90
30851;DHT22;17567;48.382;9.102;2023-04-30T00:32:45;9.70;99.90
30851;DHT22;17567;48.382;9.102;2023-04-30T00:37:46;9.70;99.90
30851;DHT22;17567;48.382;9.102;2023-04-30T00:42:47;9.70;99.90
30851;DHT22;17567;48.382;9.102;2023-04-30T00:47:48;9.70;99.90
30851;DHT22;17567;48.382;9.102;2023-04-30T00:52:49;9.70;99.90
30851;DHT22;17567;48.382;9.102;2023-04-30T00:57:50;9.60;99.90
30851;DHT22;17567;48.382;9.102;2023-04-30T01:02:51;9.70;99.90
30851;DHT22;17567;48.382;9.102;2023-04-30T01:07:53;9.70;99.90
30851;DHT22;17567;48.382;9.102;2023-04-30T01:13:00;9.70;99.90
30851;DHT22;17567;48.382;9.102;2023-04-30T01:18:08;9.70;99.90
30851;DHT22;17567;48.382;9.102;2023-04-30T01:28:45;9.70;99.90
30851;DHT22;17567;48.382;9.102;2023-04-30T01:33:46;9.70;99.90
30851;DHT22;17567;48.382;9.102;2023-04-30T01:44:28;9.60;99.90
30851;DHT22;17567;48.382;9.102;2023-04-30T01:54:41;9.60;99.90
30851;DHT22;17567;48.382;9.102;2023-04-30T01:59:44;9.50;99.90
30851;DHT22;17567;48.382;9.102;2023-04-30T02:04:46;9.40;99.90
30851;DHT22;17567;48.382;9.102;2023-04-30T02:09:46;9.40;99.90
30851;DHT22;17567;48.382;9.102;2023-04-30T02:14:47;9.30;99.90
30851;DHT22;17567;48.382;9.102;2023-04-30T02:24:48;9.20;99.90
30851;DHT22;17567;48.382;9.102;2023-04-30T02:29:49;9.10;99.90
30851;DHT22;17567;48.382;9.102;2023-04-30T02:34:50;9.10;99.90
30851;DHT22;17567;48.382;9.102;2023-04-30T02:39:52;9.00;99.90
30851;DHT22;17567;48.382;9.102;2023-04-30T02:44:53;8.80;99.90
30851;DHT22;17567;48.382;9.102;2023-04-30T03:40:08;8.10;99.90
30851;DHT22;17567;48.382;9.102;2023-04-30T03:45:09;8.20;99.90
30851;DHT22;17567;48.382;9.102;2023-04-30T03:50:10;8.10;99.90
30851;DHT22;17567;48.382;9.102;2023-04-30T03:55:11;8.00;99.90
30851;DHT22;17567;48.382;9.102;2023-04-30T04:00:13;7.90;99.90
30851;DHT22;17567;48.382;9.102;2023-04-30T04:05:14;7.70;99.90
30851;DHT22;17567;48.382;9.102;2023-04-30T04:10:15;7.70;99.90
30851;DHT22;17567;48.382;9.102;2023-04-30T04:15:16;7.50;99.90
30851;DHT22;17567;48.382;9.102;2023-04-30T04:20:16;7.20;99.90
30851;DHT22;17567;48.382;9.102;2023-04-30T04:25:18;7.30;99.90
30851;DHT22;17567;48.382;9.102;2023-04-30T04:30:19;7.20;99.90
30851;DHT22;17567;48.382;9.102;2023-04-30T04:35:20;7.20;99.90
30851;DHT22;17567;48.382;9.102;2023-04-30T04:40:21;7.20;99.90
30851;DHT22;17567;48.382;9.102;2023-04-30T04:45:21;7.00;99.90
30851;DHT22;17567;48.382;9.102;2023-04-30T04:50:23;6.90;99.90
30851;DHT22;17567;48.382;9.102;2023-04-30T04:55:24;6.90;99.90
30851;DHT22;17567;48.382;9.102;2023-04-30T05:00:24;6.80;99.90
30851;DHT22;17567;48.382;9.102;2023-04-30T05:05:25;6.80;99.90
30851;DHT22;17567;48.382;9.102;2023-04-30T05:10:25;6.70;99.90
30851;DHT22;17567;48.382;9.102;2023-04-30T05:15:26;6.90;99.90
30851;DHT22;17567;48.382;9.102;2023-04-30T05:20:27;6.90;99.90
30851;DHT22;17567;48.382;9.102;2023-04-30T05:25:27;6.90;99.90
30851;DHT22;17567;48.382;9.102;2023-04-30T05:30:29;7.10;99.90
30851;DHT22;17567;48.382;9.102;2023-04-30T05:35:29;7.40;99.90
30851;DHT22;17567;48.382;9.102;2023-04-30T05:40:31;7.60;99.90
30851;DHT22;17567;48.382;9.102;2023-04-30T05:50:33;8.20;99.90
30851;DHT22;17567;48.382;9.102;2023-04-30T05:55:34;8.30;99.90
30851;DHT22;17567;48.382;9.102;2023-04-30T06:00:35;8.40;99.90
30851;DHT22;17567;48.382;9.102;2023-04-30T06:05:35;8.60;99.90
30851;DHT22;17567;48.382;9.102;2023-04-30T06:10:36;8.90;99.90
30851;DHT22;17567;48.382;9.102;2023-04-30T06:15:41;9.00;99.90
30851;DHT22;17567;48.382;9.102;2023-04-30T06:20:41;9.20;99.90
30851;DHT22;17567;48.382;9.102;2023-04-30T06:25:42;9.50;99.90
30851;DHT22;17567;48.382;9.102;2023-04-30T06:45:58;10.10;99.90
30851;DHT22;17567;48.382;9.102;2023-04-30T07:31:14;11.50;99.90
30851;DHT22;17567;48.382;9.102;2023-04-30T07:36:14;11.50;99.90
30851;DHT22;17567;48.382;9.102;2023-04-30T07:41:15;11.60;99.90
30851;DHT22;17567;48.382;9.102;2023-04-30T07:46:15;11.80;99.90
30851;DHT22;17567;48.382;9.102;2023-04-30T07:56:19;12.40;99.90
30851;DHT22;17567;48.382;9.102;2023-04-30T08:01:20;12.50;99.90
30851;DHT22;17567;48.382;9.102;2023-04-30T08:06:21;12.50;99.90
30851;DHT22;17567;48.382;9.102;2023-04-30T08:11:22;12.70;99.90
30851;DHT22;17567;48.382;9.102;2023-04-30T08:16:23;12.70;99.90
30851;DHT22;17567;48.382;9.102;2023-04-30T08:21:24;12.90;99.90
30851;DHT22;17567;48.382;9.102;2023-04-30T08:26:24;13.20;99.90
30851;DHT22;17567;48.382;9.102;2023-04-30T08:31:25;13.30;99.90
30851;DHT22;17567;48.382;9.102;2023-04-30T08:36:26;13.40;99.90
30851;DHT22;17567;48.382;9.102;2023-04-30T08:41:31;13.40;99.90
30851;DHT22;17567;48.382;9.102;2023-04-30T08:46:34;13.60;99.90
30851;DHT22;17567;48.382;9.102;2023-04-30T08:51:35;13.70;99.90
30851;DHT22;17567;48.382;9.102;2023-04-30T08:56:36;13.80;99.90
30851;DHT22;17567;48.382;9.102;2023-04-30T09:01:37;14.00;99.90
30851;DHT22;17567;48.382;9.102;2023-04-30T09:06:38;14.00;99.90
30851;DHT22;17567;48.382;9.102;2023-04-30T09:11:38;14.10;99.90
30851;DHT22;17567;48.382;9.102;2023-04-30T09:16:49;14.20;99.90
30851;DHT22;17567;48.382;9.102;2023-04-30T09:21:50;14.20;99.90
30851;DHT22;17567;48.382;9.102;2023-04-30T09:26:52;14.20;99.90
30851;DHT22;17567;48.382;9.102;2023-04-30T09:32:09;14.10;99.90
30851;DHT22;17567;48.382;9.102;2023-04-30T09:37:11;14.20;99.90
30851;DHT22;17567;48.382;9.102;2023-04-30T09:42:11;14.20;99.90
30851;DHT22;17567;48.382;9.102;2023-04-30T09:47:16;14.20;99.90
30851;DHT22;17567;48.382;9.102;2023-04-30T09:52:18;14.30;99.90
30851;DHT22;17567;48.382;9.102;2023-04-30T09:57:22;14.20;99.90
30851;DHT22;17567;48.382;9.102;2023-04-30T10:02:23;14.40;99.90
30851;DHT22;17567;48.382;9.102;2023-04-30T10:07:32;14.50;99.90
30851;DHT22;17567;48.382;9.102;2023-04-30T10:12:42;14.50;99.90
30851;DHT22;17567;48.382;9.102;2023-04-30T10:22:50;14.70;99.90
30851;DHT22;17567;48.382;9.102;2023-04-30T10:27:51;14.80;99.90
30851;DHT22;17567;48.382;9.102;2023-04-30T10:38:21;14.60;99.90
30851;DHT22;17567;48.382;9.102;2023-04-30T10:43:29;14.60;99.90
30851;DHT22;17567;48.382;9.102;2023-04-30T10:48:32;14.70;99.90
30851;DHT22;17567;48.382;9.102;2023-04-30T10:53:35;14.60;99.90
30851;DHT22;17567;48.382;9.102;2023-04-30T10:58:38;14.70;99.90
30851;DHT22;17567;48.382;9.102;2023-04-30T11:24:04;15.50;99.90
30851;DHT22;17567;48.382;9.102;2023-04-30T11:29:06;15.50;99.90
30851;DHT22;17567;48.382;9.102;2023-04-30T11:44:25;15.90;99.90
30851;DHT22;17567;48.382;9.102;2023-04-30T11:49:26;16.10;99.90
30851;DHT22;17567;48.382;9.102;2023-04-30T11:54:34;16.10;99.90
30851;DHT22;17567;48.382;9.102;2023-04-30T11:59:41;16.10;99.90
30851;DHT22;17567;48.382;9.102;2023-04-30T12:04:43;16.30;99.90
30851;DHT22;17567;48.382;9.102;2023-04-30T12:09:56;16.40;99.90
30851;DHT22;17567;48.382;9.102;2023-04-30T12:15:13;16.50;99.90
30851;DHT22;17567;48.382;9.102;2023-04-30T12:20:15;16.70;99.90
30851;DHT22;17567;48.382;9.102;2023-04-30T12:25:17;16.50;99.90
30851;DHT22;17567;48.382;9.102;2023-04-30T12:30:20;16.60;99.90
30851;DHT22;17567;48.382;9.102;2023-04-30T12:35:22;16.60;99.90
30851;DHT22;17567;48.382;9.102;2023-04-30T12:40:26;16.60;99.90
30851;DHT22;17567;48.382;9.102;2023-04-30T12:45:43;16.80;99.90
30851;DHT22;17567;48.382;9.102;2023-04-30T12:51:07;16.80;99.90
30851;DHT22;17567;48.382;9.102;2023-04-30T12:56:14;17.10;99.90
30851;DHT22;17567;48.382;9.102;2023-04-30T13:01:17;16.90;99.90
30851;DHT22;17567;48.382;9.102;2023-04-30T13:06:20;17.20;99.90
30851;DHT22;17567;48.382;9.102;2023-04-30T13:11:21;17.20;99.90
30851;DHT22;17567;48.382;9.102;2023-04-30T13:16:23;17.70;99.90
30851;DHT22;17567;48.382;9.102;2023-04-30T13:21:24;17.70;99.90
30851;DHT22;17567;48.382;9.102;2023-04-30T13:26:24;17.70;99.90
30851;DHT22;17567;48.382;9.102;2023-04-30T13:31:25;17.70;99.90
30851;DHT22;17567;48.382;9.102;2023-04-30T13:36:26;17.50;99.90
30851;DHT22;17567;48.382;9.102;2023-04-30T13:41:28;17.30;99.90
30851;DHT22;17567;48.382;9.102;2023-04-30T13:46:28;17.30;99.90
30851;DHT22;17567;48.382;9.102;2023-04-30T13:51:29;17.40;99.90
30851;DHT22;17567;48.382;9.102;2023-04-30T13:56:30;17.40;99.90
30851;DHT22;17567;48.382;9.102;2023-04-30T14:01:31;17.70;99.90
30851;DHT22;17567;48.382;9.102;2023-04-30T14:06:33;17.90;99.90
30851;DHT22;17567;48.382;9.102;2023-04-30T14:11:34;18.10;99.90
30851;DHT22;17567;48.382;9.102;2023-04-30T14:16:34;18.00;99.90
30851;DHT22;17567;48.382;9.102;2023-04-30T14:21:35;18.00;99.90
30851;DHT22;17567;48.382;9.102;2023-04-30T14:26:35;18.20;99.90
30851;DHT22;17567;48.382;9.102;2023-04-30T14:31:36;18.10;99.90
30851;DHT22;17567;48.382;9.102;2023-04-30T14:36:37;18.10;99.90
30851;DHT22;17567;48.382;9.102;2023-04-30T14:41:38;18.00;99.90
30851;DHT22;17567;48.382;9.102;2023-04-30T14:46:38;17.70;99.90
30851;DHT22;17567;48.382;9.102;2023-04-30T14:51:40;17.70;99.90
30851;DHT22;17567;48.382;9.102;2023-04-30T14:56:40;17.70;99.90
30851;DHT22;17567;48.382;9.102;2023-04-30T15:01:41;17.70;99.90
30851;DHT22;17567;48.382;9.102;2023-04-30T15:06:42;17.70;99.90
30851;DHT22;17567;48.382;9.102;2023-04-30T15:11:42;17.40;99.90
30851;DHT22;17567;48.382;9.102;2023-04-30T15:16:43;17.70;99.90
30851;DHT22;17567;48.382;9.102;2023-04-30T15:21:43;17.70;99.90
30851;DHT22;17567;48.382;9.102;2023-04-30T15:26:44;17.60;99.90
30851;DHT22;17567;48.382;9.102;2023-04-30T15:36:51;17.20;99.90
30851;DHT22;17567;48.382;9.102;2023-04-30T15:46:53;17.30;99.90
30851;DHT22;17567;48.382;9.102;2023-04-30T15:51:55;17.10;99.90
30851;DHT22;17567;48.382;9.102;2023-04-30T15:56:55;17.20;99.90
30851;DHT22;17567;48.382;9.102;2023-04-30T16:07:00;16.90;99.90
30851;DHT22;17567;48.382;9.102;2023-04-30T16:12:01;17.10;99.90
30851;DHT22;17567;48.382;9.102;2023-04-30T16:17:01;16.60;99.90
30851;DHT22;17567;48.382;9.102;2023-04-30T16:22:02;16.70;99.90
30851;DHT22;17567;48.382;9.102;2023-04-30T16:27:03;16.80;99.90
30851;DHT22;17567;48.382;9.102;2023-04-30T16:32:04;16.50;99.90
30851;DHT22;17567;48.382;9.102;2023-04-30T16:37:04;16.40;99.90
30851;DHT22;17567;48.382;9.102;2023-04-30T16:52:08;16.20;99.90
30851;DHT22;17567;48.382;9.102;2023-04-30T16:57:08;16.00;99.90
30851;DHT22;17567;48.382;9.102;2023-04-30T17:02:10;16.10;99.90
30851;DHT22;17567;48.382;9.102;2023-04-30T17:17:16;15.70;99.90
30851;DHT22;17567;48.382;9.102;2023-04-30T17:22:17;15.50;99.90
30851;DHT22;17567;48.382;9.102;2023-04-30T17:27:19;15.40;99.90
30851;DHT22;17567;48.382;9.102;2023-04-30T17:32:23;15.20;99.90
30851;DHT22;17567;48.382;9.102;2023-04-30T17:37:24;15.00;99.90
30851;DHT22;17567;48.382;9.102;2023-04-30T17:42:25;15.00;99.90
30851;DHT22;17567;48.382;9.102;2023-04-30T17:47:26;14.90;99.90
30851;DHT22;17567;48.382;9.102;2023-04-30T17:52:27;14.80;99.90
30851;DHT22;17567;48.382;9.102;2023-04-30T17:57:27;14.70;99.90
30851;DHT22;17567;48.382;9.102;2023-04-30T18:02:28;14.60;99.90
30851;DHT22;17567;48.382;9.102;2023-04-30T18:07:29;14.50;99.90
30851;DHT22;17567;48.382;9.102;2023-04-30T18:12:29;14.50;99.90
30851;DHT22;17567;48.382;9.102;2023-04-30T18:17:30;14.30;99.90
30851;DHT22;17567;48.382;9.102;2023-04-30T18:22:31;14.30;99.90
30851;DHT22;17567;48.382;9.102;2023-04-30T18:27:32;14.30;99.90
30851;DHT22;17567;48.382;9.102;2023-04-30T18:32:34;14.20;99.90
30851;DHT22;17567;48.382;9.102;2023-04-30T18:37:35;14.00;99.90
30851;DHT22;17567;48.382;9.102;2023-04-30T18:42:36;13.90;99.90
30851;DHT22;17567;48.382;9.102;2023-04-30T18:47:37;13.80;99.90
30851;DHT22;17567;48.382;9.102;2023-04-30T18:52:38;13.80;99.90
30851;DHT22;17567;48.382;9.102;2023-04-30T18:57:42;13.70;99.90
30851;DHT22;17567;48.382;9.102;2023-04-30T19:02:43;13.60;99.90
30851;DHT22;17567;48.382;9.102;2023-04-30T19:07:43;13.50;99.90
30851;DHT22;17567;48.382;9.102;2023-04-30T19:12:44;13.30;99.90
30851;DHT22;17567;48.382;9.102;2023-04-30T19:17:47;13.40;99.90
30851;DHT22;17567;48.382;9.102;2023-04-30T19:22:48;13.30;99.90
30851;DHT22;17567;48.382;9.102;2023-04-30T19:27:49;13.30;99.90
30851;DHT22;17567;48.382;9.102;2023-04-30T19:32:50;13.20;99.90
30851;DHT22;17567;48.382;9.102;2023-04-30T19:37:51;13.20;99.90
30851;DHT22;17567;48.382;9.102;2023-04-30T19:42:52;13.80;99.90
30851;DHT22;17567;48.382;9.102;2023-04-30T19:47:53;13.20;99.90
30851;DHT22;17567;48.382;9.102;2023-04-30T19:52:53;13.10;99.90
30851;DHT22;17567;48.382;9.102;2023-04-30T19:57:54;13.00;99.90
30851;DHT22;17567;48.382;9.102;2023-04-30T20:02:55;13.00;99.90
30851;DHT22;17567;48.382;9.102;2023-04-30T20:07:56;13.00;99.90
30851;DHT22;17567;48.382;9.102;2023-04-30T20:12:56;13.00;99.90
30851;DHT22;17567;48.382;9.102;2023-04-30T20:17:57;12.70;99.90
30851;DHT22;17567;48.382;9.102;2023-04-30T20:23:09;12.70;99.90
30851;DHT22;17567;48.382;9.102;2023-04-30T20:28:11;12.70;99.90
30851;DHT22;17567;48.382;9.102;2023-04-30T20:33:13;12.60;99.90
30851;DHT22;17567;48.382;9.102;2023-04-30T20:38:14;12.60;99.90
30851;DHT22;17567;48.382;9.102;2023-04-30T20:43:15;12.40;99.90
30851;DHT22;17567;48.382;9.102;2023-04-30T20:48:16;12.20;99.90
30851;DHT22;17567;48.382;9.102;2023-04-30T20:53:17;12.00;99.90
30851;DHT22;17567;48.382;9.102;2023-04-30T20:58:18;11.90;99.90
30851;DHT22;17567;48.382;9.102;2023-04-30T21:03:18;11.90;99.90
30851;DHT22;17567;48.382;9.102;2023-04-30T21:08:19;11.90;99.90
30851;DHT22;17567;48.382;9.102;2023-04-30T21:13:20;11.70;99.90
30851;DHT22;17567;48.382;9.102;2023-04-30T21:23:22;11.10;99.90
30851;DHT22;17567;48.382;9.102;2023-04-30T21:28:22;10.80;99.90
30851;DHT22;17567;48.382;9.102;2023-04-30T21:33:23;10.60;99.90
30851;DHT22;17567;48.382;9.102;2023-04-30T21:38:24;10.70;99.90
30851;DHT22;17567;48.382;9.102;2023-04-30T21:43:24;10.90;99.90
30851;DHT22;17567;48.382;9.102;2023-04-30T21:48:25;10.80;99.90
30851;DHT22;17567;48.382;9.102;2023-04-30T21:53:26;10.60;99.90
30851;DHT22;17567;48.382;9.102;2023-04-30T21:58:26;10.50;99.90
30851;DHT22;17567;48.382;9.102;2023-04-30T22:03:27;10.40;99.90
30851;DHT22;17567;48.382;9.102;2023-04-30T22:13:29;10.30;99.90
30851;DHT22;17567;48.382;9.102;2023-04-30T22:18:29;10.20;99.90
30851;DHT22;17567;48.382;9.102;2023-04-30T22:28:31;10.00;99.90
30851;DHT22;17567;48.382;9.102;2023-04-30T22:33:35;9.90;99.90
30851;DHT22;17567;48.382;9.102;2023-04-30T22:38:36;9.80;99.90
30851;DHT22;17567;48.382;9.102;2023-04-30T22:43:37;9.80;99.90
30851;DHT22;17567;48.382;9.102;2023-04-30T22:48:38;9.70;99.90
30851;DHT22;17567;48.382;9.102;2023-04-30T22:53:39;9.70;99.90
30851;DHT22;17567;48.382;9.102;2023-04-30T22:58:39;9.70;99.90
30851;DHT22;17567;48.382;9.102;2023-04-30T23:03:40;9.60;99.90
30851;DHT22;17567;48.382;9.102;2023-04-30T23:08:40;9.50;99.90
30851;DHT22;17567;48.382;9.102;2023-04-30T23:13:43;9.50;99.90
30851;DHT22;17567;48.382;9.102;2023-04-30T23:18:44;9.60;99.90
30851;DHT22;17567;48.382;9.102;2023-04-30T23:23:48;9.50;99.90
30851;DHT22;17567;48.382;9.102;2023-04-30T23:28:49;9.50;99.90
30851;DHT22;17567;48.382;9.102;2023-04-30T23:33:50;9.40;99.90
30851;DHT22;17567;48.382;9.102;2023-04-30T23:38:51;9.30;99.90
30851;DHT22;17567;48.382;9.102;2023-04-30T23:43:52;9.30;99.90
30851;DHT22;17567;48.382;9.102;2023-04-30T23:48:53;9.30;99.90
30851;DHT22;17567;48.382;9.102;2023-04-30T23:53:54;9.30;99.90
30851;DHT22;17567;48.382;9.102;2023-04-30T23:58:54;9.30;99.90
